createdAt,value
2019-05-07T00:00:56.765Z,97.74
2019-05-07T00:01:56.755Z,97.84
2019-05-07T00:02:56.743Z,97.84
2019-05-07T00:03:56.734Z,97.65
2019-05-07T00:04:56.729Z,97.36
2019-05-07T00:05:56.724Z,97.46
2019-05-07T00:06:56.715Z,98.03
2019-05-07T00:07:56.707Z,98.13
2019-05-07T00:08:56.696Z,97.88
2019-05-07T00:09:56.686Z,97.93
2019-05-07T00:10:56.674Z,97.93
2019-05-07T00:11:56.666Z,98.03
2019-05-07T00:12:56.662Z,97.65
2019-05-07T00:13:56.654Z,97.69
2019-05-07T00:15:01.253Z,98.03
2019-05-07T00:15:56.633Z,97.79
2019-05-07T00:16:56.628Z,98.03
2019-05-07T00:17:56.620Z,98.13
2019-05-07T00:18:56.614Z,97.79
2019-05-07T00:19:56.607Z,97.98
2019-05-07T00:20:56.591Z,97.41
2019-05-07T00:21:56.585Z,97.60
2019-05-07T00:22:56.576Z,97.60
2019-05-07T00:23:56.568Z,97.41
2019-05-07T00:24:56.562Z,97.31
2019-05-07T00:25:56.554Z,97.41
2019-05-07T00:26:56.546Z,97.79
2019-05-07T00:27:56.535Z,98.08
2019-05-07T00:28:56.521Z,97.36
2019-05-07T00:29:56.512Z,97.69
2019-05-07T00:30:56.510Z,97.65
2019-05-07T00:31:56.502Z,97.65
2019-05-07T00:32:56.488Z,97.46
2019-05-07T00:33:56.480Z,97.41
2019-05-07T00:34:56.477Z,97.41
2019-05-07T00:35:56.465Z,97.36
2019-05-07T00:36:56.461Z,98.13
2019-05-07T00:37:56.452Z,97.60
2019-05-07T00:38:56.443Z,97.93
2019-05-07T00:39:56.439Z,97.93
2019-05-07T00:40:56.422Z,97.93
2019-05-07T00:41:56.415Z,97.84
2019-05-07T00:42:56.405Z,97.50
2019-05-07T00:43:56.395Z,98.27
2019-05-07T00:44:56.396Z,97.88
2019-05-07T00:45:57.076Z,98.08
2019-05-07T00:46:56.368Z,97.93
2019-05-07T00:47:56.360Z,97.84
2019-05-07T00:48:56.356Z,97.84
2019-05-07T00:49:56.348Z,98.03
2019-05-07T00:50:56.342Z,97.84
2019-05-07T00:51:56.332Z,97.79
2019-05-07T00:52:56.319Z,97.79
2019-05-07T00:53:56.311Z,97.88
2019-05-07T00:54:56.304Z,97.98
2019-05-07T00:55:56.295Z,97.69
2019-05-07T00:56:56.291Z,97.60
2019-05-07T00:57:56.281Z,97.60
2019-05-07T00:58:56.271Z,97.60
2019-05-07T00:59:56.263Z,97.98
2019-05-07T01:00:56.248Z,97.88
2019-05-07T01:01:56.251Z,97.98
2019-05-07T01:02:56.237Z,98.08
2019-05-07T01:03:56.234Z,97.88
2019-05-07T01:04:56.215Z,97.88
2019-05-07T01:05:56.207Z,97.98
2019-05-07T01:06:56.200Z,98.17
2019-05-07T01:07:56.191Z,97.98
2019-05-07T01:08:56.189Z,97.98
2019-05-07T01:09:56.178Z,97.98
2019-05-07T01:10:56.172Z,98.55
2019-05-07T01:11:56.162Z,98.74
2019-05-07T01:12:59.049Z,98.46
2019-05-07T01:13:56.140Z,98.55
2019-05-07T01:14:56.129Z,98.60
2019-05-07T01:15:56.122Z,97.98
2019-05-07T01:16:56.116Z,98.17
2019-05-07T01:17:56.109Z,98.17
2019-05-07T01:18:56.097Z,97.98
2019-05-07T01:19:56.086Z,98.46
2019-05-07T01:20:56.081Z,98.17
2019-05-07T01:21:56.072Z,98.65
2019-05-07T01:22:56.070Z,98.65
2019-05-07T01:23:56.059Z,98.27
2019-05-07T01:24:56.046Z,98.08
2019-05-07T01:25:56.038Z,98.55
2019-05-07T01:26:56.028Z,98.74
2019-05-07T01:27:56.021Z,98.74
2019-05-07T01:28:56.015Z,98.93
2019-05-07T01:29:56.007Z,98.74
2019-05-07T01:30:56.002Z,98.55
2019-05-07T01:31:55.987Z,98.74
2019-05-07T01:32:55.976Z,98.08
2019-05-07T01:33:55.967Z,98.74
2019-05-07T01:34:55.963Z,98.83
2019-05-07T01:35:55.954Z,98.74
2019-05-07T01:36:55.939Z,98.46
2019-05-07T01:37:55.932Z,98.55
2019-05-07T01:38:55.929Z,97.98
2019-05-07T01:39:55.918Z,98.46
2019-05-07T01:40:55.911Z,98.46
2019-05-07T01:41:55.904Z,98.55
2019-05-07T01:42:55.896Z,98.74
2019-05-07T01:43:55.886Z,98.65
2019-05-07T01:44:55.874Z,98.65
2019-05-07T01:45:55.865Z,98.36
2019-05-07T01:46:55.857Z,98.17
2019-05-07T01:47:55.846Z,98.65
2019-05-07T01:48:57.550Z,98.55
2019-05-07T01:49:55.831Z,98.74
2019-05-07T01:50:55.820Z,98.55
2019-05-07T01:51:55.810Z,98.55
2019-05-07T01:52:55.807Z,98.93
2019-05-07T01:53:55.798Z,99.31
2019-05-07T01:54:55.793Z,99.22
2019-05-07T01:55:55.785Z,98.83
2019-05-07T01:56:55.771Z,98.93
2019-05-07T01:57:55.761Z,99.31
2019-05-07T01:58:55.754Z,99.02
2019-05-07T01:59:55.744Z,98.83
2019-05-07T02:00:55.739Z,98.55
2019-05-07T02:01:55.729Z,98.93
2019-05-07T02:02:55.718Z,99.02
2019-05-07T02:03:55.714Z,98.74
2019-05-07T02:04:55.696Z,99.12
2019-05-07T02:05:55.688Z,99.12
2019-05-07T02:06:55.684Z,99.12
2019-05-07T02:07:55.677Z,98.55
2019-05-07T02:08:55.663Z,98.55
2019-05-07T02:09:55.653Z,98.83
2019-05-07T02:10:55.648Z,98.65
2019-05-07T02:11:55.641Z,98.93
2019-05-07T02:12:55.634Z,98.83
2019-05-07T02:13:55.633Z,98.65
2019-05-07T02:14:55.616Z,99.22
2019-05-07T02:16:00.859Z,99.41
2019-05-07T02:16:55.594Z,99.02
2019-05-07T02:17:55.584Z,98.93
2019-05-07T02:18:55.578Z,98.93
2019-05-07T02:19:55.572Z,98.46
2019-05-07T02:20:55.564Z,99.31
2019-05-07T02:21:55.556Z,99.22
2019-05-07T02:22:55.544Z,99.02
2019-05-07T02:23:55.541Z,99.22
2019-05-07T02:24:55.531Z,99.31
2019-05-07T02:25:55.528Z,99.41
2019-05-07T02:26:55.516Z,98.93
2019-05-07T02:27:55.502Z,99.12
2019-05-07T02:28:55.489Z,98.93
2019-05-07T02:29:55.479Z,98.93
2019-05-07T02:30:55.499Z,98.74
2019-05-07T02:31:55.463Z,98.93
2019-05-07T02:32:55.460Z,98.74
2019-05-07T02:33:55.456Z,99.02
2019-05-07T02:34:55.442Z,98.55
2019-05-07T02:35:55.435Z,98.93
2019-05-07T02:36:55.422Z,98.69
2019-05-07T02:37:56.774Z,98.79
2019-05-07T02:38:55.407Z,98.88
2019-05-07T02:39:55.400Z,98.88
2019-05-07T02:40:55.385Z,98.69
2019-05-07T02:41:55.383Z,98.60
2019-05-07T02:42:55.372Z,98.69
2019-05-07T02:43:55.357Z,98.79
2019-05-07T02:44:55.354Z,98.88
2019-05-07T02:45:55.342Z,98.69
2019-05-07T02:46:55.336Z,98.50
2019-05-07T02:47:55.339Z,98.50
2019-05-07T02:48:55.311Z,98.88
2019-05-07T02:49:55.307Z,98.97
2019-05-07T02:50:55.297Z,98.97
2019-05-07T02:51:55.287Z,98.22
2019-05-07T02:52:55.282Z,99.16
2019-05-07T02:53:55.276Z,99.16
2019-05-07T02:54:55.262Z,99.07
2019-05-07T02:55:55.254Z,98.69
2019-05-07T02:56:55.248Z,98.97
2019-05-07T02:57:55.240Z,98.60
2019-05-07T02:58:55.226Z,98.41
2019-05-07T02:59:55.219Z,97.93
2019-05-07T03:00:55.203Z,98.12
2019-05-07T03:01:55.196Z,98.31
2019-05-07T03:02:55.186Z,98.36
2019-05-07T03:03:55.176Z,97.88
2019-05-07T03:04:55.170Z,98.83
2019-05-07T03:05:55.162Z,98.45
2019-05-07T03:06:55.155Z,98.93
2019-05-07T03:07:55.145Z,98.83
2019-05-07T03:08:55.135Z,98.55
2019-05-07T03:09:55.124Z,98.83
2019-05-07T03:10:55.147Z,99.02
2019-05-07T03:11:55.109Z,99.11
2019-05-07T03:12:55.097Z,98.45
2019-05-07T03:13:55.086Z,99.02
2019-05-07T03:14:55.073Z,99.30
2019-05-07T03:15:55.066Z,98.55
2019-05-07T03:16:55.059Z,98.64
2019-05-07T03:17:55.051Z,99.11
2019-05-07T03:18:55.076Z,99.02
2019-05-07T03:19:55.036Z,98.93
2019-05-07T03:20:55.021Z,99.02
2019-05-07T03:21:55.431Z,99.40
2019-05-07T03:22:54.998Z,99.11
2019-05-07T03:23:54.991Z,99.30
2019-05-07T03:24:54.984Z,99.02
2019-05-07T03:25:54.975Z,99.69
2019-05-07T03:26:54.962Z,99.11
2019-05-07T03:27:54.983Z,99.30
2019-05-07T03:28:54.946Z,99.69
2019-05-07T03:29:54.939Z,99.30
2019-05-07T03:30:56.828Z,99.02
2019-05-07T03:31:56.307Z,99.07
2019-05-07T03:32:56.394Z,99.21
2019-05-07T03:33:56.283Z,99.64
2019-05-07T03:34:57.756Z,99.07
2019-05-07T03:35:56.481Z,99.07
2019-05-07T03:36:56.990Z,98.97
2019-05-07T03:37:54.918Z,99.78
2019-05-07T03:38:54.851Z,99.64
2019-05-07T03:39:54.844Z,99.35
2019-05-07T03:40:54.829Z,99.73
2019-05-07T03:41:54.818Z,99.26
2019-05-07T03:42:54.815Z,99.26
2019-05-07T03:43:54.806Z,99.16
2019-05-07T03:44:54.791Z,99.83
2019-05-07T03:45:54.780Z,99.64
2019-05-07T03:47:02.122Z,99.26
2019-05-07T03:47:54.767Z,98.97
2019-05-07T03:48:54.758Z,98.97
2019-05-07T03:49:54.751Z,99.16
2019-05-07T03:50:54.743Z,99.35
2019-05-07T03:51:54.731Z,99.35
2019-05-07T03:52:54.716Z,99.16
2019-05-07T03:53:54.707Z,99.26
2019-05-07T03:54:54.702Z,98.97
2019-05-07T03:55:54.687Z,99.26
2019-05-07T03:56:54.679Z,99.26
2019-05-07T03:57:54.671Z,99.16
2019-05-07T03:58:54.670Z,99.07
2019-05-07T03:59:54.646Z,99.16
2019-05-07T04:00:54.641Z,99.26
2019-05-07T04:01:54.631Z,99.16
2019-05-07T04:02:54.623Z,99.64
2019-05-07T04:03:54.616Z,99.64
2019-05-07T04:04:54.607Z,99.54
2019-05-07T04:05:54.592Z,99.99
2019-05-07T04:06:54.583Z,99.99
2019-05-07T04:07:54.574Z,99.73
2019-05-07T04:08:54.574Z,99.83
2019-05-07T04:09:54.557Z,99.73
2019-05-07T04:10:54.558Z,99.83
2019-05-07T04:11:54.536Z,99.99
2019-05-07T04:12:54.521Z,99.83
2019-05-07T04:13:54.527Z,99.92
2019-05-07T04:14:54.505Z,99.64
2019-05-07T04:15:54.497Z,99.99
2019-05-07T04:17:11.896Z,99.73
2019-05-07T04:17:54.473Z,99.69
2019-05-07T04:18:54.471Z,99.78
2019-05-07T04:19:54.459Z,99.78
2019-05-07T04:20:54.452Z,99.99
2019-05-07T04:21:54.443Z,99.88
2019-05-07T04:22:54.436Z,99.78
2019-05-07T04:23:54.422Z,99.88
2019-05-07T04:24:54.406Z,99.99
2019-05-07T04:25:54.397Z,99.99
2019-05-07T04:26:54.392Z,99.88
2019-05-07T04:27:54.383Z,99.88
2019-05-07T04:28:54.418Z,99.59
2019-05-07T04:29:54.366Z,99.97
2019-05-07T04:30:54.352Z,99.99
2019-05-07T04:31:54.345Z,99.99
2019-05-07T04:32:54.338Z,99.99
2019-05-07T04:33:54.332Z,99.99
2019-05-07T04:34:54.319Z,99.21
2019-05-07T04:35:54.308Z,99.21
2019-05-07T04:36:54.295Z,99.40
2019-05-07T04:37:54.285Z,98.93
2019-05-07T04:38:54.276Z,99.11
2019-05-07T04:39:54.292Z,99.07
2019-05-07T04:40:54.262Z,99.55
2019-05-07T04:41:54.255Z,99.45
2019-05-07T04:42:54.245Z,99.64
2019-05-07T04:43:54.424Z,98.88
2019-05-07T04:44:54.318Z,98.79
2019-05-07T04:45:54.214Z,98.97
2019-05-07T04:46:54.210Z,99.55
2019-05-07T04:47:54.214Z,99.16
2019-05-07T04:48:54.195Z,98.12
2019-05-07T04:49:54.177Z,98.79
2019-05-07T04:50:54.446Z,98.79
2019-05-07T04:51:54.160Z,98.69
2019-05-07T04:52:54.243Z,97.93
2019-05-07T04:53:54.428Z,98.60
2019-05-07T04:54:54.136Z,98.12
2019-05-07T04:55:54.131Z,98.60
2019-05-07T04:56:54.118Z,98.74
2019-05-07T04:57:54.102Z,98.83
2019-05-07T04:58:54.098Z,98.17
2019-05-07T04:59:54.099Z,98.55
2019-05-07T05:00:54.083Z,98.74
2019-05-07T05:01:54.073Z,98.74
2019-05-07T05:02:54.061Z,98.46
2019-05-07T05:03:54.313Z,98.60
2019-05-07T05:04:54.048Z,98.03
2019-05-07T05:05:54.051Z,98.41
2019-05-07T05:06:54.027Z,97.93
2019-05-07T05:07:54.022Z,97.65
2019-05-07T05:08:56.232Z,97.41
2019-05-07T05:09:53.998Z,97.13
2019-05-07T05:10:54.186Z,97.51
2019-05-07T05:11:53.987Z,96.94
2019-05-07T05:12:53.978Z,97.13
2019-05-07T05:13:53.977Z,97.03
2019-05-07T05:14:53.964Z,96.55
2019-05-07T05:15:53.958Z,96.08
2019-05-07T05:16:53.944Z,96.12
2019-05-07T05:17:54.374Z,95.94
2019-05-07T05:18:53.930Z,95.56
2019-05-07T05:19:53.922Z,95.51
2019-05-07T05:20:53.911Z,95.79
2019-05-07T05:21:53.906Z,94.98
2019-05-07T05:22:53.894Z,94.98
2019-05-07T05:23:53.886Z,93.98
2019-05-07T05:24:53.882Z,92.55
2019-05-07T05:25:53.874Z,91.83
2019-05-07T05:26:53.864Z,89.45
2019-05-07T05:27:53.860Z,88.34
2019-05-07T05:28:53.855Z,87.77
2019-05-07T05:29:53.850Z,86.57
2019-05-07T05:30:53.841Z,86.19
2019-05-07T05:31:53.834Z,85.24
2019-05-07T05:32:53.824Z,84.32
2019-05-07T05:33:53.815Z,83.17
2019-05-07T05:34:53.815Z,83.65
2019-05-07T05:35:53.808Z,82.74
2019-05-07T05:36:53.797Z,81.40
2019-05-07T05:37:53.798Z,80.44
2019-05-07T05:38:53.791Z,79.96
2019-05-07T05:40:05.624Z,79.73
2019-05-07T05:40:53.782Z,78.81
2019-05-07T05:41:53.777Z,79.16
2019-05-07T05:42:53.774Z,78.97
2019-05-07T05:43:53.767Z,79.25
2019-05-07T05:44:53.760Z,78.30
2019-05-07T05:45:53.755Z,79.02
2019-05-07T05:46:53.770Z,79.50
2019-05-07T05:48:04.082Z,79.65
2019-05-07T05:48:53.741Z,79.56
2019-05-07T05:49:53.737Z,79.85
2019-05-07T05:50:53.823Z,80.38
2019-05-07T05:51:53.723Z,82.00
2019-05-07T05:52:53.720Z,82.19
2019-05-07T05:53:53.716Z,82.48
2019-05-07T05:54:53.714Z,83.14
2019-05-07T05:55:53.710Z,83.62
2019-05-07T05:56:53.699Z,83.43
2019-05-07T05:57:53.695Z,83.72
2019-05-07T05:58:53.690Z,83.34
2019-05-07T05:59:55.474Z,82.95
2019-05-07T06:00:53.684Z,82.86
2019-05-07T06:01:53.678Z,82.61
2019-05-07T06:02:53.672Z,82.32
2019-05-07T06:03:53.669Z,81.14
2019-05-07T06:04:53.660Z,81.90
2019-05-07T06:05:53.658Z,81.95
2019-05-07T06:07:07.666Z,81.62
2019-05-07T06:07:53.648Z,82.72
2019-05-07T06:08:53.640Z,83.39
2019-05-07T06:09:53.633Z,83.91
2019-05-07T06:10:53.631Z,83.20
2019-05-07T06:11:53.634Z,83.29
2019-05-07T06:12:53.625Z,84.29
2019-05-07T06:13:53.621Z,84.29
2019-05-07T06:14:54.051Z,84.10
2019-05-07T06:15:53.611Z,83.72
2019-05-07T06:16:53.601Z,83.47
2019-05-07T06:17:53.598Z,83.57
2019-05-07T06:18:53.592Z,83.18
2019-05-07T06:19:53.585Z,83.76
2019-05-07T06:20:53.585Z,83.47
2019-05-07T06:21:53.580Z,83.47
2019-05-07T06:22:53.572Z,83.18
2019-05-07T06:23:53.566Z,83.24
2019-05-07T06:24:56.335Z,83.86
2019-05-07T06:25:53.562Z,83.34
2019-05-07T06:26:53.561Z,84.10
2019-05-07T06:27:53.556Z,83.43
2019-05-07T06:28:53.548Z,84.38
2019-05-07T06:29:53.544Z,82.79
2019-05-07T06:30:53.538Z,81.22
2019-05-07T06:31:53.536Z,80.11
2019-05-07T06:32:53.534Z,80.27
2019-05-07T06:33:53.532Z,80.02
2019-05-07T06:34:53.529Z,79.16
2019-05-07T06:35:53.527Z,78.74
2019-05-07T06:36:53.520Z,78.39
2019-05-07T06:37:53.517Z,78.16
2019-05-07T06:38:53.518Z,77.97
2019-05-07T06:39:53.516Z,77.72
2019-05-07T06:40:53.509Z,77.13
2019-05-07T06:41:53.507Z,75.16
2019-05-07T06:42:53.504Z,73.91
2019-05-07T06:43:53.501Z,72.38
2019-05-07T06:44:53.503Z,72.55
2019-05-07T06:45:53.501Z,70.47
2019-05-07T06:46:53.502Z,70.21
2019-05-07T06:47:53.501Z,69.45
2019-05-07T06:48:53.497Z,68.40
2019-05-07T06:49:53.496Z,67.79
2019-05-07T06:50:53.498Z,66.96
2019-05-07T06:51:53.499Z,66.42
2019-05-07T06:52:53.504Z,65.23
2019-05-07T06:53:53.504Z,65.33
2019-05-07T06:54:53.510Z,64.66
2019-05-07T06:55:53.502Z,66.22
2019-05-07T06:56:53.508Z,66.74
2019-05-07T06:57:53.507Z,66.99
2019-05-07T06:58:53.509Z,67.54
2019-05-07T06:59:53.517Z,67.57
2019-05-07T07:00:53.509Z,67.69
2019-05-07T07:01:53.511Z,66.93
2019-05-07T07:02:53.510Z,66.35
2019-05-07T07:03:53.512Z,66.10
2019-05-07T07:04:53.517Z,65.91
2019-05-07T07:05:53.520Z,65.05
2019-05-07T07:06:53.525Z,64.95
2019-05-07T07:07:53.528Z,63.96
2019-05-07T07:08:53.547Z,62.52
2019-05-07T07:09:53.527Z,62.16
2019-05-07T07:10:53.535Z,61.78
2019-05-07T07:11:53.564Z,60.91
2019-05-07T07:12:53.535Z,61.40
2019-05-07T07:13:53.537Z,60.50
2019-05-07T07:14:53.536Z,61.36
2019-05-07T07:15:53.541Z,61.27
2019-05-07T07:16:53.546Z,60.98
2019-05-07T07:17:53.549Z,61.11
2019-05-07T07:18:55.825Z,61.04
2019-05-07T07:19:53.552Z,60.27
2019-05-07T07:20:53.549Z,60.14
2019-05-07T07:21:53.553Z,59.53
2019-05-07T07:22:53.556Z,59.56
2019-05-07T07:23:53.564Z,57.92
2019-05-07T07:24:53.566Z,58.44
2019-05-07T07:25:53.569Z,57.12
2019-05-07T07:26:53.566Z,56.90
2019-05-07T07:27:53.571Z,56.82
2019-05-07T07:28:53.576Z,56.92
2019-05-07T07:29:53.588Z,55.27
2019-05-07T07:30:53.578Z,55.56
2019-05-07T07:31:53.581Z,55.59
2019-05-07T07:32:53.585Z,55.81
2019-05-07T07:33:53.582Z,55.49
2019-05-07T07:34:53.588Z,54.94
2019-05-07T07:35:53.592Z,54.00
2019-05-07T07:37:04.973Z,53.87
2019-05-07T07:37:53.601Z,52.59
2019-05-07T07:38:53.602Z,52.04
2019-05-07T07:39:53.607Z,52.04
2019-05-07T07:40:53.608Z,52.16
2019-05-07T07:41:53.611Z,51.87
2019-05-07T07:42:53.618Z,51.07
2019-05-07T07:43:53.625Z,51.24
2019-05-07T07:44:53.621Z,51.92
2019-05-07T07:45:53.624Z,52.35
2019-05-07T07:46:53.630Z,52.47
2019-05-07T07:47:53.635Z,51.07
2019-05-07T07:49:07.203Z,49.90
2019-05-07T07:49:53.646Z,48.88
2019-05-07T07:50:53.675Z,48.61
2019-05-07T07:51:53.651Z,48.81
2019-05-07T07:52:53.652Z,48.76
2019-05-07T07:53:53.657Z,49.79
2019-05-07T07:54:53.661Z,50.04
2019-05-07T07:55:53.662Z,49.99
2019-05-07T07:56:56.343Z,49.73
2019-05-07T07:57:53.676Z,48.25
2019-05-07T07:58:53.677Z,47.67
2019-05-07T07:59:53.683Z,48.11
2019-05-07T08:00:53.692Z,47.53
2019-05-07T08:01:53.699Z,46.20
2019-05-07T08:02:53.704Z,46.49
2019-05-07T08:03:53.709Z,46.32
2019-05-07T08:04:53.717Z,44.96
2019-05-07T08:05:53.715Z,45.51
2019-05-07T08:06:53.721Z,46.91
2019-05-07T08:07:53.728Z,48.44
2019-05-07T08:08:53.736Z,49.38
2019-05-07T08:09:53.742Z,50.35
2019-05-07T08:10:53.747Z,51.02
2019-05-07T08:11:53.751Z,51.05
2019-05-07T08:12:53.752Z,51.20
2019-05-07T08:13:53.756Z,50.04
2019-05-07T08:14:53.765Z,49.41
2019-05-07T08:15:53.770Z,50.40
2019-05-07T08:16:53.769Z,52.10
2019-05-07T08:17:53.774Z,53.45
2019-05-07T08:18:53.784Z,54.00
2019-05-07T08:19:53.786Z,55.07
2019-05-07T08:20:53.793Z,57.75
2019-05-07T08:21:53.797Z,59.00
2019-05-07T08:22:53.802Z,59.64
2019-05-07T08:23:53.810Z,60.50
2019-05-07T08:24:53.806Z,60.22
2019-05-07T08:25:53.804Z,59.36
2019-05-07T08:26:53.804Z,60.03
2019-05-07T08:27:53.805Z,60.03
2019-05-07T08:28:53.812Z,60.12
2019-05-07T08:29:53.814Z,59.55
2019-05-07T08:30:53.811Z,60.79
2019-05-07T08:31:53.811Z,61.27
2019-05-07T08:32:53.817Z,62.01
2019-05-07T08:33:53.816Z,62.68
2019-05-07T08:34:53.820Z,62.81
2019-05-07T08:35:53.821Z,62.62
2019-05-07T08:36:53.817Z,62.90
2019-05-07T08:37:53.818Z,63.38
2019-05-07T08:38:53.816Z,62.87
2019-05-07T08:39:53.814Z,62.55
2019-05-07T08:40:53.822Z,63.13
2019-05-07T08:41:53.824Z,63.70
2019-05-07T08:42:53.820Z,63.70
2019-05-07T08:44:07.292Z,63.32
2019-05-07T08:44:53.812Z,63.89
2019-05-07T08:45:53.813Z,63.80
2019-05-07T08:46:53.816Z,63.51
2019-05-07T08:47:53.813Z,63.73
2019-05-07T08:48:53.813Z,62.49
2019-05-07T08:49:53.806Z,63.35
2019-05-07T08:50:53.803Z,61.24
2019-05-07T08:51:53.804Z,62.77
2019-05-07T08:52:53.804Z,63.54
2019-05-07T08:53:53.803Z,64.12
2019-05-07T08:54:53.801Z,63.45
2019-05-07T08:55:53.801Z,63.83
2019-05-07T08:56:53.791Z,65.08
2019-05-07T08:57:53.790Z,63.22
2019-05-07T08:58:53.791Z,62.59
2019-05-07T09:00:00.297Z,62.68
2019-05-07T09:00:53.793Z,63.64
2019-05-07T09:01:53.792Z,64.25
2019-05-07T09:02:53.783Z,64.53
2019-05-07T09:03:53.788Z,63.19
2019-05-07T09:04:53.783Z,62.33
2019-05-07T09:05:53.783Z,62.04
2019-05-07T09:06:53.778Z,61.34
2019-05-07T09:07:53.776Z,62.01
2019-05-07T09:08:53.773Z,62.01
2019-05-07T09:09:53.767Z,62.49
2019-05-07T09:10:53.765Z,62.97
2019-05-07T09:11:53.770Z,62.40
2019-05-07T09:12:53.764Z,62.77
2019-05-07T09:13:53.767Z,62.40
2019-05-07T09:14:53.764Z,62.49
2019-05-07T09:15:53.761Z,62.40
2019-05-07T09:16:53.755Z,63.39
2019-05-07T09:17:53.754Z,63.19
2019-05-07T09:18:53.757Z,62.62
2019-05-07T09:19:54.924Z,61.44
2019-05-07T09:20:53.746Z,62.40
2019-05-07T09:21:53.745Z,62.43
2019-05-07T09:22:53.737Z,63.10
2019-05-07T09:23:53.737Z,63.32
2019-05-07T09:24:53.740Z,64.09
2019-05-07T09:25:53.735Z,63.89
2019-05-07T09:26:53.734Z,62.17
2019-05-07T09:27:53.731Z,59.81
2019-05-07T09:28:53.724Z,59.97
2019-05-07T09:29:53.722Z,60.52
2019-05-07T09:30:53.723Z,61.19
2019-05-07T09:31:53.723Z,62.14
2019-05-07T09:32:53.722Z,62.74
2019-05-07T09:33:53.721Z,62.81
2019-05-07T09:34:53.714Z,62.43
2019-05-07T09:35:53.711Z,62.71
2019-05-07T09:36:53.712Z,63.57
2019-05-07T09:37:53.711Z,64.50
2019-05-07T09:38:59.347Z,65.93
2019-05-07T09:39:53.703Z,65.93
2019-05-07T09:40:56.855Z,66.44
2019-05-07T09:41:53.694Z,66.16
2019-05-07T09:42:53.692Z,66.63
2019-05-07T09:43:53.688Z,65.48
2019-05-07T09:44:53.691Z,65.77
2019-05-07T09:45:53.689Z,64.91
2019-05-07T09:46:53.689Z,64.05
2019-05-07T09:47:53.687Z,63.57
2019-05-07T09:48:53.677Z,63.32
2019-05-07T09:50:04.322Z,63.89
2019-05-07T09:50:53.676Z,63.29
2019-05-07T09:51:53.671Z,62.55
2019-05-07T09:52:53.664Z,63.57
2019-05-07T09:53:53.661Z,63.00
2019-05-07T09:54:53.655Z,63.51
2019-05-07T09:55:53.655Z,64.66
2019-05-07T09:56:53.653Z,64.75
2019-05-07T09:57:53.649Z,64.69
2019-05-07T09:58:53.648Z,65.74
2019-05-07T09:59:53.643Z,64.79
2019-05-07T10:00:53.637Z,64.79
2019-05-07T10:01:53.635Z,64.53
2019-05-07T10:02:56.618Z,64.15
2019-05-07T10:03:53.630Z,63.19
2019-05-07T10:04:53.632Z,62.43
2019-05-07T10:05:53.627Z,62.07
2019-05-07T10:06:53.645Z,61.79
2019-05-07T10:07:53.624Z,61.24
2019-05-07T10:08:53.619Z,59.33
2019-05-07T10:09:53.617Z,59.13
2019-05-07T10:10:53.612Z,58.08
2019-05-07T10:11:53.609Z,58.17
2019-05-07T10:12:53.601Z,57.76
2019-05-07T10:13:53.598Z,57.48
2019-05-07T10:14:53.595Z,57.28
2019-05-07T10:15:53.593Z,57.67
2019-05-07T10:16:53.594Z,57.86
2019-05-07T10:17:53.594Z,57.09
2019-05-07T10:18:53.604Z,57.95
2019-05-07T10:19:53.590Z,57.95
2019-05-07T10:20:53.586Z,57.95
2019-05-07T10:21:53.581Z,58.05
2019-05-07T10:22:53.583Z,58.91
2019-05-07T10:23:53.580Z,59.01
2019-05-07T10:24:53.574Z,58.91
2019-05-07T10:25:53.573Z,58.05
2019-05-07T10:26:53.569Z,58.53
2019-05-07T10:27:53.564Z,59.01
2019-05-07T10:28:53.568Z,59.01
2019-05-07T10:29:53.564Z,59.58
2019-05-07T10:30:53.561Z,59.68
2019-05-07T10:31:53.560Z,59.27
2019-05-07T10:32:53.552Z,58.98
2019-05-07T10:33:53.550Z,59.55
2019-05-07T10:34:53.549Z,60.32
2019-05-07T10:35:53.550Z,60.32
2019-05-07T10:36:53.550Z,61.47
2019-05-07T10:37:53.546Z,63.29
2019-05-07T10:38:53.540Z,64.63
2019-05-07T10:39:53.537Z,65.01
2019-05-07T10:40:53.536Z,64.72
2019-05-07T10:41:53.534Z,64.82
2019-05-07T10:42:53.529Z,64.92
2019-05-07T10:43:53.528Z,65.78
2019-05-07T10:44:53.518Z,66.35
2019-05-07T10:45:53.516Z,66.22
2019-05-07T10:46:53.516Z,66.61
2019-05-07T10:47:53.514Z,67.76
2019-05-07T10:48:53.513Z,67.94
2019-05-07T10:49:53.509Z,69.09
2019-05-07T10:50:53.504Z,70.15
2019-05-07T10:51:53.500Z,70.53
2019-05-07T10:52:53.493Z,69.99
2019-05-07T10:53:53.490Z,69.48
2019-05-07T10:54:59.754Z,69.13
2019-05-07T10:55:53.485Z,68.55
2019-05-07T10:56:53.478Z,69.23
2019-05-07T10:57:53.475Z,68.36
2019-05-07T10:58:53.474Z,67.69
2019-05-07T10:59:53.470Z,67.88
2019-05-07T11:00:53.470Z,66.16
2019-05-07T11:01:53.466Z,66.35
2019-05-07T11:02:53.463Z,66.35
2019-05-07T11:03:53.461Z,65.30
2019-05-07T11:04:53.453Z,64.76
2019-05-07T11:05:53.452Z,64.95
2019-05-07T11:06:53.444Z,64.40
2019-05-07T11:07:53.981Z,63.83
2019-05-07T11:08:53.441Z,63.06
2019-05-07T11:09:53.437Z,62.04
2019-05-07T11:10:53.436Z,61.18
2019-05-07T11:11:53.430Z,60.53
2019-05-07T11:12:53.427Z,58.87
2019-05-07T11:13:55.849Z,56.89
2019-05-07T11:14:53.426Z,56.31
2019-05-07T11:15:53.422Z,56.15
2019-05-07T11:16:53.414Z,55.19
2019-05-07T11:17:53.412Z,55.32
2019-05-07T11:18:53.412Z,54.16
2019-05-07T11:19:53.415Z,54.06
2019-05-07T11:20:53.633Z,53.68
2019-05-07T11:21:53.408Z,53.13
2019-05-07T11:22:53.441Z,52.05
2019-05-07T11:23:53.405Z,51.76
2019-05-07T11:24:53.400Z,52.14
2019-05-07T11:25:53.395Z,51.76
2019-05-07T11:26:53.399Z,52.31
2019-05-07T11:27:53.399Z,53.27
2019-05-07T11:28:53.393Z,53.75
2019-05-07T11:29:53.391Z,54.33
2019-05-07T11:30:53.393Z,54.13
2019-05-07T11:31:53.392Z,54.33
2019-05-07T11:32:53.541Z,54.39
2019-05-07T11:33:53.393Z,54.13
2019-05-07T11:34:56.294Z,54.11
2019-05-07T11:35:53.389Z,54.11
2019-05-07T11:36:53.410Z,54.21
2019-05-07T11:37:53.383Z,53.70
2019-05-07T11:38:53.379Z,53.89
2019-05-07T11:39:53.378Z,54.27
2019-05-07T11:40:53.379Z,53.79
2019-05-07T11:41:53.378Z,53.22
2019-05-07T11:42:53.492Z,52.64
2019-05-07T11:43:54.063Z,52.83
2019-05-07T11:44:55.050Z,52.36
2019-05-07T11:45:54.323Z,53.22
2019-05-07T11:46:53.372Z,53.70
2019-05-07T11:47:53.370Z,53.77
2019-05-07T11:48:53.362Z,54.34
2019-05-07T11:49:53.362Z,53.38
2019-05-07T11:51:01.513Z,53.45
2019-05-07T11:51:53.353Z,53.48
2019-05-07T11:52:53.390Z,53.86
2019-05-07T11:53:53.353Z,54.72
2019-05-07T11:54:53.353Z,55.21
2019-05-07T11:55:53.352Z,54.82
2019-05-07T11:56:55.443Z,54.44
2019-05-07T11:57:53.345Z,54.75
2019-05-07T11:58:54.849Z,55.23
2019-05-07T11:59:54.376Z,55.04
2019-05-07T12:00:53.335Z,54.46
2019-05-07T12:01:53.333Z,55.23
2019-05-07T12:02:53.389Z,53.89
2019-05-07T12:03:53.328Z,53.09
2019-05-07T12:04:53.328Z,53.00
2019-05-07T12:05:53.328Z,53.50
2019-05-07T12:06:53.324Z,53.79
2019-05-07T12:07:53.321Z,53.31
2019-05-07T12:08:53.319Z,53.63
2019-05-07T12:09:53.321Z,53.91
2019-05-07T12:10:53.315Z,53.05
2019-05-07T12:11:53.313Z,53.53
2019-05-07T12:12:53.314Z,53.24
2019-05-07T12:13:53.314Z,53.63
2019-05-07T12:14:53.309Z,54.01
2019-05-07T12:15:53.305Z,54.11
2019-05-07T12:16:53.308Z,55.26
2019-05-07T12:17:53.305Z,56.02
2019-05-07T12:18:55.474Z,56.02
2019-05-07T12:19:53.301Z,56.02
2019-05-07T12:20:54.186Z,55.83
2019-05-07T12:21:53.292Z,56.02
2019-05-07T12:22:53.289Z,56.31
2019-05-07T12:23:53.287Z,55.16
2019-05-07T12:24:53.289Z,53.91
2019-05-07T12:25:53.290Z,52.76
2019-05-07T12:26:53.287Z,52.28
2019-05-07T12:27:53.284Z,52.57
2019-05-07T12:28:53.279Z,52.48
2019-05-07T12:29:53.276Z,51.59
2019-05-07T12:30:53.278Z,52.33
2019-05-07T12:31:55.674Z,54.24
2019-05-07T12:32:53.271Z,54.05
2019-05-07T12:33:53.268Z,53.86
2019-05-07T12:34:53.262Z,54.44
2019-05-07T12:35:53.261Z,54.53
2019-05-07T12:36:53.260Z,54.03
2019-05-07T12:37:53.259Z,53.62
2019-05-07T12:38:53.454Z,53.81
2019-05-07T12:39:53.263Z,53.81
2019-05-07T12:40:53.247Z,53.81
2019-05-07T12:41:53.246Z,53.78
2019-05-07T12:42:53.246Z,54.00
2019-05-07T12:43:53.244Z,54.32
2019-05-07T12:44:53.248Z,54.70
2019-05-07T12:45:53.241Z,53.83
2019-05-07T12:46:53.236Z,53.93
2019-05-07T12:47:53.235Z,53.36
2019-05-07T12:48:53.234Z,52.97
2019-05-07T12:49:53.232Z,52.59
2019-05-07T12:50:53.280Z,53.86
2019-05-07T12:51:53.226Z,54.24
2019-05-07T12:52:53.220Z,54.24